Aviation Digital Data Service (ADDS)

Output produced by METARs form (0344 UTC 23 November 2017)
found at http://www.aviationweather.gov/adds/metars/
 
WBSB 230330Z 03006KT 9999 FEW016 BKN280 32/23 Q1007 NOSIG
TAF WBSB 222300Z 2300/2406 29003KT 9999 FEW015 FEW016CB 
     BECMG 2304/2306 02009KT SCT016 FEW017CB 
     TEMPO 2306/2308 7000 -SHRA SCT014 FEW015CB